sensor_id;sensor_type;location;lat;lon;timestamp;pressure;altitude;pressure_sealevel;temperature;humidity
72857;BME280;62742;52.136;4.500;2023-02-28T00:01:07;103326.13;;;1.49;90.22
72857;BME280;62742;52.136;4.500;2023-02-28T00:03:33;103320.88;;;1.47;90.54
72857;BME280;62742;52.136;4.500;2023-02-28T00:06:05;103314.28;;;1.53;90.58
72857;BME280;62742;52.136;4.500;2023-02-28T00:08:33;103320.53;;;1.56;90.60
72857;BME280;62742;52.136;4.500;2023-02-28T00:11:02;103323.91;;;1.55;90.49
72857;BME280;62742;52.136;4.500;2023-02-28T00:13:34;103327.53;;;1.72;90.11
72857;BME280;62742;52.136;4.500;2023-02-28T00:16:09;103325.88;;;1.73;90.27
72857;BME280;62742;52.136;4.500;2023-02-28T00:18:37;103327.63;;;1.74;90.43
72857;BME280;62742;52.136;4.500;2023-02-28T00:21:05;103325.53;;;1.81;90.37
72857;BME280;62742;52.136;4.500;2023-02-28T00:23:33;103332.38;;;1.81;90.00
72857;BME280;62742;52.136;4.500;2023-02-28T00:25:59;103320.59;;;1.86;90.80
72857;BME280;62742;52.136;4.500;2023-02-28T00:28:26;103325.97;;;1.89;90.98
72857;BME280;62742;52.136;4.500;2023-02-28T00:30:53;103322.69;;;2.06;90.86
72857;BME280;62742;52.136;4.500;2023-02-28T00:33:19;103321.91;;;2.08;90.45
72857;BME280;62742;52.136;4.500;2023-02-28T00:35:46;103319.94;;;2.03;90.57
72857;BME280;62742;52.136;4.500;2023-02-28T00:38:13;103323.31;;;2.02;91.17
72857;BME280;62742;52.136;4.500;2023-02-28T00:40:40;103316.34;;;2.16;90.67
72857;BME280;62742;52.136;4.500;2023-02-28T00:43:07;103313.66;;;2.15;90.47
72857;BME280;62742;52.136;4.500;2023-02-28T00:45:33;103316.16;;;2.13;90.70
72857;BME280;62742;52.136;4.500;2023-02-28T00:48:00;103315.66;;;2.19;90.42
72857;BME280;62742;52.136;4.500;2023-02-28T00:50:26;103317.25;;;2.17;90.77
72857;BME280;62742;52.136;4.500;2023-02-28T00:52:53;103310.63;;;2.22;90.45
72857;BME280;62742;52.136;4.500;2023-02-28T00:55:19;103312.72;;;2.28;89.54
72857;BME280;62742;52.136;4.500;2023-02-28T00:57:46;103313.16;;;2.20;90.40
72857;BME280;62742;52.136;4.500;2023-02-28T01:00:12;103320.13;;;2.21;90.87
72857;BME280;62742;52.136;4.500;2023-02-28T01:02:39;103317.53;;;2.36;90.58
72857;BME280;62742;52.136;4.500;2023-02-28T01:05:05;103318.09;;;2.31;90.38
72857;BME280;62742;52.136;4.500;2023-02-28T01:07:32;103317.25;;;2.32;90.85
72857;BME280;62742;52.136;4.500;2023-02-28T01:09:58;103320.91;;;2.35;90.91
72857;BME280;62742;52.136;4.500;2023-02-28T01:12:24;103322.00;;;2.39;90.97
72857;BME280;62742;52.136;4.500;2023-02-28T01:14:51;103320.31;;;2.39;91.08
72857;BME280;62742;52.136;4.500;2023-02-28T01:17:17;103315.63;;;2.34;91.26
72857;BME280;62742;52.136;4.500;2023-02-28T01:19:43;103330.16;;;2.45;90.75
72857;BME280;62742;52.136;4.500;2023-02-28T01:22:10;103321.72;;;2.49;90.70
72857;BME280;62742;52.136;4.500;2023-02-28T01:24:37;103319.31;;;2.52;91.19
72857;BME280;62742;52.136;4.500;2023-02-28T01:27:03;103317.97;;;2.59;90.50
72857;BME280;62742;52.136;4.500;2023-02-28T01:29:30;103317.97;;;2.59;90.95
72857;BME280;62742;52.136;4.500;2023-02-28T01:31:56;103316.00;;;2.55;90.95
72857;BME280;62742;52.136;4.500;2023-02-28T01:34:23;103318.50;;;2.68;90.64
72857;BME280;62742;52.136;4.500;2023-02-28T01:36:49;103319.50;;;2.70;90.14
72857;BME280;62742;52.136;4.500;2023-02-28T01:39:15;103312.50;;;2.69;90.53
72857;BME280;62742;52.136;4.500;2023-02-28T01:41:42;103316.88;;;2.70;90.53
72857;BME280;62742;52.136;4.500;2023-02-28T01:44:57;103317.88;;;2.72;90.50
72857;BME280;62742;52.136;4.500;2023-02-28T01:47:33;103302.84;;;2.67;90.92
72857;BME280;62742;52.136;4.500;2023-02-28T01:50:08;103304.16;;;2.75;89.81
72857;BME280;62742;52.136;4.500;2023-02-28T01:52:38;103302.28;;;2.87;89.41
72857;BME280;62742;52.136;4.500;2023-02-28T01:55:06;103300.09;;;2.80;89.95
72857;BME280;62742;52.136;4.500;2023-02-28T01:57:39;103297.50;;;2.80;90.15
72857;BME280;62742;52.136;4.500;2023-02-28T02:00:15;103295.19;;;2.85;89.59
72857;BME280;62742;52.136;4.500;2023-02-28T02:02:47;103292.78;;;2.88;89.46
72857;BME280;62742;52.136;4.500;2023-02-28T02:05:25;103299.13;;;2.93;89.51
72857;BME280;62742;52.136;4.500;2023-02-28T02:07:56;103289.91;;;3.14;88.41
72857;BME280;62742;52.136;4.500;2023-02-28T02:10:32;103295.16;;;3.16;88.36
72857;BME280;62742;52.136;4.500;2023-02-28T02:13:29;103293.34;;;2.98;89.20
72857;BME280;62742;52.136;4.500;2023-02-28T02:18:52;103299.31;;;3.12;88.94
72857;BME280;62742;52.136;4.500;2023-02-28T02:21:46;103287.50;;;3.34;87.83
72857;BME280;62742;52.136;4.500;2023-02-28T02:27:17;103285.38;;;3.27;88.25
72857;BME280;62742;52.136;4.500;2023-02-28T02:30:11;103276.44;;;3.22;88.74
72857;BME280;62742;52.136;4.500;2023-02-28T02:35:56;103270.41;;;3.06;90.43
72857;BME280;62742;52.136;4.500;2023-02-28T02:39:00;103274.78;;;3.07;90.23
72857;BME280;62742;52.136;4.500;2023-02-28T02:41:47;103274.06;;;3.10;90.51
72857;BME280;62742;52.136;4.500;2023-02-28T02:44:31;103272.53;;;3.13;90.81
72857;BME280;62742;52.136;4.500;2023-02-28T02:47:08;103271.56;;;3.11;90.80
72857;BME280;62742;52.136;4.500;2023-02-28T02:49:39;103271.47;;;3.10;90.79
72857;BME280;62742;52.136;4.500;2023-02-28T02:52:14;103274.16;;;3.11;90.59
72857;BME280;62742;52.136;4.500;2023-02-28T02:54:46;103273.41;;;3.14;90.21
72857;BME280;62742;52.136;4.500;2023-02-28T02:57:23;103271.56;;;3.11;90.75
72857;BME280;62742;52.136;4.500;2023-02-28T02:59:56;103272.44;;;3.12;90.50
72857;BME280;62742;52.136;4.500;2023-02-28T03:02:25;103271.75;;;3.14;90.40
72857;BME280;62742;52.136;4.500;2023-02-28T03:05:03;103277.56;;;3.10;90.44
72857;BME280;62742;52.136;4.500;2023-02-28T03:07:34;103280.06;;;3.09;91.33
72857;BME280;62742;52.136;4.500;2023-02-28T03:10:01;103276.09;;;3.15;90.57
72857;BME280;62742;52.136;4.500;2023-02-28T03:12:41;103283.59;;;3.09;91.00
72857;BME280;62742;52.136;4.500;2023-02-28T03:15:25;103291.22;;;3.23;90.76
72857;BME280;62742;52.136;4.500;2023-02-28T03:18:07;103279.34;;;3.11;90.66
72857;BME280;62742;52.136;4.500;2023-02-28T03:26:20;103281.50;;;3.35;90.08
72857;BME280;62742;52.136;4.500;2023-02-28T03:29:10;103272.16;;;3.39;89.49
72857;BME280;62742;52.136;4.500;2023-02-28T03:32:05;103267.19;;;3.43;89.72
72857;BME280;62742;52.136;4.500;2023-02-28T03:34:46;103266.31;;;3.43;89.79
72857;BME280;62742;52.136;4.500;2023-02-28T03:37:23;103269.31;;;3.50;89.44
72857;BME280;62742;52.136;4.500;2023-02-28T03:40:00;103272.81;;;3.51;89.28
72857;BME280;62742;52.136;4.500;2023-02-28T03:42:36;103266.63;;;3.65;88.13
72857;BME280;62742;52.136;4.500;2023-02-28T03:45:18;103272.00;;;3.52;89.05
72857;BME280;62742;52.136;4.500;2023-02-28T03:47:51;103260.03;;;3.72;87.83
72857;BME280;62742;52.136;4.500;2023-02-28T03:50:30;103264.94;;;3.66;87.90
72857;BME280;62742;52.136;4.500;2023-02-28T03:53:20;103263.22;;;3.50;88.97
72857;BME280;62742;52.136;4.500;2023-02-28T03:56:17;103271.66;;;3.46;89.78
72857;BME280;62742;52.136;4.500;2023-02-28T03:58:53;103261.50;;;3.34;90.59
72857;BME280;62742;52.136;4.500;2023-02-28T04:01:36;103262.41;;;3.34;89.83
72857;BME280;62742;52.136;4.500;2023-02-28T04:04:08;103263.84;;;3.29;90.27
72857;BME280;62742;52.136;4.500;2023-02-28T04:06:36;103268.16;;;3.29;90.53
72857;BME280;62742;52.136;4.500;2023-02-28T04:09:05;103271.66;;;3.29;90.65
72857;BME280;62742;52.136;4.500;2023-02-28T04:11:38;103269.06;;;3.29;90.42
72857;BME280;62742;52.136;4.500;2023-02-28T04:14:08;103268.44;;;3.33;90.69
72857;BME280;62742;52.136;4.500;2023-02-28T04:16:38;103274.06;;;3.26;90.26
72857;BME280;62742;52.136;4.500;2023-02-28T04:19:07;103280.38;;;3.30;90.54
72857;BME280;62742;52.136;4.500;2023-02-28T04:21:40;103279.69;;;3.34;90.56
72857;BME280;62742;52.136;4.500;2023-02-28T04:24:14;103279.28;;;3.26;90.51
72857;BME280;62742;52.136;4.500;2023-02-28T04:26:50;103282.88;;;3.28;90.63
72857;BME280;62742;52.136;4.500;2023-02-28T04:29:24;103284.31;;;3.23;90.91
72857;BME280;62742;52.136;4.500;2023-02-28T04:31:54;103283.75;;;3.29;90.82
72857;BME280;62742;52.136;4.500;2023-02-28T04:34:24;103289.28;;;3.35;90.55
72857;BME280;62742;52.136;4.500;2023-02-28T04:36:55;103282.69;;;3.25;90.79
72857;BME280;62742;52.136;4.500;2023-02-28T04:39:24;103281.16;;;3.29;91.10
72857;BME280;62742;52.136;4.500;2023-02-28T04:41:50;103281.81;;;3.41;90.99
72857;BME280;62742;52.136;4.500;2023-02-28T04:44:17;103281.00;;;3.42;90.48
72857;BME280;62742;52.136;4.500;2023-02-28T04:46:44;103285.94;;;3.37;90.61
72857;BME280;62742;52.136;4.500;2023-02-28T04:49:11;103285.53;;;3.46;90.60
72857;BME280;62742;52.136;4.500;2023-02-28T04:51:39;103286.69;;;3.51;89.72
72857;BME280;62742;52.136;4.500;2023-02-28T04:54:06;103293.84;;;3.55;89.97
72857;BME280;62742;52.136;4.500;2023-02-28T04:56:33;103290.56;;;3.43;90.02
72857;BME280;62742;52.136;4.500;2023-02-28T04:59:00;103287.66;;;3.53;89.36
72857;BME280;62742;52.136;4.500;2023-02-28T05:01:35;103285.06;;;3.70;88.57
72857;BME280;62742;52.136;4.500;2023-02-28T05:04:03;103277.09;;;3.83;87.32
72857;BME280;62742;52.136;4.500;2023-02-28T05:06:32;103279.22;;;3.58;88.40
72857;BME280;62742;52.136;4.500;2023-02-28T05:08:59;103280.53;;;3.49;89.52
72857;BME280;62742;52.136;4.500;2023-02-28T05:11:29;103275.47;;;3.36;89.83
72857;BME280;62742;52.136;4.500;2023-02-28T05:14:06;103273.38;;;3.29;90.75
72857;BME280;62742;52.136;4.500;2023-02-28T05:16:36;103279.34;;;3.28;90.76
72857;BME280;62742;52.136;4.500;2023-02-28T05:19:03;103279.28;;;3.26;90.90
72857;BME280;62742;52.136;4.500;2023-02-28T05:21:35;103276.75;;;3.28;90.75
72857;BME280;62742;52.136;4.500;2023-02-28T05:24:12;103281.00;;;3.42;90.16
72857;BME280;62742;52.136;4.500;2023-02-28T05:26:41;103276.94;;;3.31;89.98
72857;BME280;62742;52.136;4.500;2023-02-28T05:29:09;103272.56;;;3.30;89.67
72857;BME280;62742;52.136;4.500;2023-02-28T05:31:37;103280.00;;;3.24;89.81
72857;BME280;62742;52.136;4.500;2023-02-28T05:34:04;103276.63;;;3.25;89.67
72857;BME280;62742;52.136;4.500;2023-02-28T05:36:31;103278.31;;;3.24;89.77
72857;BME280;62742;52.136;4.500;2023-02-28T05:38:58;103290.84;;;3.64;87.22
72857;BME280;62742;52.136;4.500;2023-02-28T05:41:24;103277.44;;;3.56;87.20
72857;BME280;62742;52.136;4.500;2023-02-28T05:43:51;103277.84;;;3.48;87.28
72857;BME280;62742;52.136;4.500;2023-02-28T05:46:18;103280.25;;;3.45;86.56
72857;BME280;62742;52.136;4.500;2023-02-28T05:48:47;103278.91;;;3.35;87.21
72857;BME280;62742;52.136;4.500;2023-02-28T05:51:14;103285.28;;;3.25;88.00
72857;BME280;62742;52.136;4.500;2023-02-28T05:53:41;103288.94;;;3.29;87.88
72857;BME280;62742;52.136;4.500;2023-02-28T05:56:08;103287.31;;;3.31;87.93
72857;BME280;62742;52.136;4.500;2023-02-28T05:58:35;103281.06;;;3.27;87.38
72857;BME280;62742;52.136;4.500;2023-02-28T06:01:18;103286.66;;;3.18;87.93
72857;BME280;62742;52.136;4.500;2023-02-28T06:03:47;103284.88;;;3.17;88.19
72857;BME280;62742;52.136;4.500;2023-02-28T06:06:13;103290.66;;;3.45;86.33
72857;BME280;62742;52.136;4.500;2023-02-28T06:08:40;103290.94;;;3.66;84.58
72857;BME280;62742;52.136;4.500;2023-02-28T06:11:06;103281.25;;;3.47;85.81
72857;BME280;62742;52.136;4.500;2023-02-28T06:13:33;103286.09;;;3.24;86.53
72857;BME280;62742;52.136;4.500;2023-02-28T06:16:02;103287.66;;;3.37;86.59
72857;BME280;62742;52.136;4.500;2023-02-28T06:18:29;103287.00;;;3.41;85.54
72857;BME280;62742;52.136;4.500;2023-02-28T06:20:56;103280.03;;;3.40;85.19
72857;BME280;62742;52.136;4.500;2023-02-28T06:23:22;103280.44;;;3.31;85.21
72857;BME280;62742;52.136;4.500;2023-02-28T06:25:49;103283.75;;;3.29;85.58
72857;BME280;62742;52.136;4.500;2023-02-28T06:28:16;103282.34;;;3.19;85.91
72857;BME280;62742;52.136;4.500;2023-02-28T06:30:42;103289.75;;;3.11;86.31
72857;BME280;62742;52.136;4.500;2023-02-28T06:33:08;103287.63;;;3.04;87.29
72857;BME280;62742;52.136;4.500;2023-02-28T06:35:35;103289.31;;;3.04;87.82
72857;BME280;62742;52.136;4.500;2023-02-28T06:38:01;103292.75;;;3.19;86.71
72857;BME280;62742;52.136;4.500;2023-02-28T06:40:29;103293.41;;;3.15;86.56
72857;BME280;62742;52.136;4.500;2023-02-28T06:42:57;103297.41;;;3.25;86.35
72857;BME280;62742;52.136;4.500;2023-02-28T06:45:24;103297.94;;;3.19;86.00
72857;BME280;62742;52.136;4.500;2023-02-28T06:47:51;103297.41;;;3.25;85.99
72857;BME280;62742;52.136;4.500;2023-02-28T06:50:20;103297.75;;;3.16;86.67
72857;BME280;62742;52.136;4.500;2023-02-28T06:52:46;103292.53;;;3.31;85.19
72857;BME280;62742;52.136;4.500;2023-02-28T06:55:13;103299.41;;;3.14;86.30
72857;BME280;62742;52.136;4.500;2023-02-28T06:57:39;103303.31;;;3.22;86.12
72857;BME280;62742;52.136;4.500;2023-02-28T07:00:07;103304.53;;;3.29;84.94
72857;BME280;62742;52.136;4.500;2023-02-28T07:02:35;103315.72;;;3.11;86.75
72857;BME280;62742;52.136;4.500;2023-02-28T07:05:04;103315.06;;;3.15;86.87
72857;BME280;62742;52.136;4.500;2023-02-28T07:07:32;103324.69;;;3.02;87.81
72857;BME280;62742;52.136;4.500;2023-02-28T07:10:00;103318.63;;;3.01;87.55
72857;BME280;62742;52.136;4.500;2023-02-28T07:12:26;103321.06;;;2.83;87.64
72857;BME280;62742;52.136;4.500;2023-02-28T07:14:53;103328.53;;;2.62;86.45
72857;BME280;62742;52.136;4.500;2023-02-28T07:17:21;103327.78;;;2.79;86.46
72857;BME280;62742;52.136;4.500;2023-02-28T07:19:47;103325.13;;;2.63;85.12
72857;BME280;62742;52.136;4.500;2023-02-28T07:22:14;103328.81;;;2.67;85.52
72857;BME280;62742;52.136;4.500;2023-02-28T07:24:41;103335.84;;;2.54;85.32
72857;BME280;62742;52.136;4.500;2023-02-28T07:27:07;103338.03;;;2.47;86.02
72857;BME280;62742;52.136;4.500;2023-02-28T07:29:34;103346.25;;;2.39;86.54
72857;BME280;62742;52.136;4.500;2023-02-28T07:32:00;103349.00;;;2.42;86.15
72857;BME280;62742;52.136;4.500;2023-02-28T07:34:26;103347.41;;;2.30;85.37
72857;BME280;62742;52.136;4.500;2023-02-28T07:36:54;103341.88;;;2.38;85.90
72857;BME280;62742;52.136;4.500;2023-02-28T07:39:21;103346.44;;;2.28;86.51
72857;BME280;62742;52.136;4.500;2023-02-28T07:41:48;103347.34;;;2.43;85.52
72857;BME280;62742;52.136;4.500;2023-02-28T07:44:15;103348.75;;;2.23;86.11
72857;BME280;62742;52.136;4.500;2023-02-28T07:46:42;103353.22;;;2.11;86.97
72857;BME280;62742;52.136;4.500;2023-02-28T07:49:09;103342.09;;;2.13;87.24
72857;BME280;62742;52.136;4.500;2023-02-28T07:51:35;103358.94;;;2.05;87.09
72857;BME280;62742;52.136;4.500;2023-02-28T07:54:02;103352.06;;;2.20;86.14
72857;BME280;62742;52.136;4.500;2023-02-28T07:56:29;103351.78;;;2.16;86.50
72857;BME280;62742;52.136;4.500;2023-02-28T07:58:55;103352.81;;;2.04;86.36
72857;BME280;62742;52.136;4.500;2023-02-28T08:01:21;103352.47;;;1.98;87.55
72857;BME280;62742;52.136;4.500;2023-02-28T08:03:48;103349.78;;;1.97;87.90
72857;BME280;62742;52.136;4.500;2023-02-28T08:06:22;103348.06;;;1.97;88.08
72857;BME280;62742;52.136;4.500;2023-02-28T08:08:50;103348.97;;;1.98;88.44
72857;BME280;62742;52.136;4.500;2023-02-28T08:11:17;103355.22;;;2.01;88.17
72857;BME280;62742;52.136;4.500;2023-02-28T08:13:45;103355.88;;;2.12;87.52
72857;BME280;62742;52.136;4.500;2023-02-28T08:16:13;103356.66;;;1.96;87.94
72857;BME280;62742;52.136;4.500;2023-02-28T08:18:43;103353.91;;;2.08;86.91
72857;BME280;62742;52.136;4.500;2023-02-28T08:21:10;103353.34;;;1.99;87.00
72857;BME280;62742;52.136;4.500;2023-02-28T08:23:38;103359.38;;;2.13;86.54
72857;BME280;62742;52.136;4.500;2023-02-28T08:26:05;103360.06;;;1.95;87.29
72857;BME280;62742;52.136;4.500;2023-02-28T08:28:32;103357.50;;;2.10;87.06
72857;BME280;62742;52.136;4.500;2023-02-28T08:30:58;103354.09;;;2.11;87.10
72857;BME280;62742;52.136;4.500;2023-02-28T08:33:27;103357.56;;;2.12;87.20
72857;BME280;62742;52.136;4.500;2023-02-28T08:35:55;103361.47;;;1.90;87.49
72857;BME280;62742;52.136;4.500;2023-02-28T08:38:24;103362.66;;;1.95;88.41
72857;BME280;62742;52.136;4.500;2023-02-28T08:40:58;103353.44;;;2.00;87.75
72857;BME280;62742;52.136;4.500;2023-02-28T08:43:26;103351.22;;;2.06;88.18
72857;BME280;62742;52.136;4.500;2023-02-28T08:45:56;103360.25;;;1.98;88.17
72857;BME280;62742;52.136;4.500;2023-02-28T08:48:24;103364.41;;;1.96;88.16
72857;BME280;62742;52.136;4.500;2023-02-28T08:51:03;103349.06;;;1.99;88.66
72857;BME280;62742;52.136;4.500;2023-02-28T08:53:31;103352.88;;;1.91;88.60
72857;BME280;62742;52.136;4.500;2023-02-28T08:56:07;103346.94;;;2.07;89.12
72857;BME280;62742;52.136;4.500;2023-02-28T08:58:39;103352.31;;;2.25;88.48
72857;BME280;62742;52.136;4.500;2023-02-28T09:01:14;103351.69;;;2.14;88.36
72857;BME280;62742;52.136;4.500;2023-02-28T09:03:47;103340.53;;;2.15;88.46
72857;BME280;62742;52.136;4.500;2023-02-28T09:06:16;103326.03;;;2.19;89.01
72857;BME280;62742;52.136;4.500;2023-02-28T09:08:45;103334.97;;;2.09;88.88
72857;BME280;62742;52.136;4.500;2023-02-28T09:11:12;103342.09;;;2.13;89.71
72857;BME280;62742;52.136;4.500;2023-02-28T09:13:39;103343.56;;;2.23;89.30
72857;BME280;62742;52.136;4.500;2023-02-28T09:16:10;103342.84;;;2.26;89.40
72857;BME280;62742;52.136;4.500;2023-02-28T09:18:39;103335.69;;;2.21;89.09
72857;BME280;62742;52.136;4.500;2023-02-28T09:21:08;103342.84;;;2.11;89.58
72857;BME280;62742;52.136;4.500;2023-02-28T09:23:37;103351.06;;;2.03;90.01
72857;BME280;62742;52.136;4.500;2023-02-28T09:26:04;103348.91;;;2.11;90.52
72857;BME280;62742;52.136;4.500;2023-02-28T09:28:31;103338.72;;;2.14;89.96
72857;BME280;62742;52.136;4.500;2023-02-28T09:30:57;103338.81;;;2.16;89.82
72857;BME280;62742;52.136;4.500;2023-02-28T09:33:25;103335.13;;;2.27;90.55
72857;BME280;62742;52.136;4.500;2023-02-28T09:35:58;103336.50;;;2.50;90.01
72857;BME280;62742;52.136;4.500;2023-02-28T09:38:27;103334.97;;;2.84;89.38
72857;BME280;62742;52.136;4.500;2023-02-28T09:40:58;103339.88;;;2.94;88.34
72857;BME280;62742;52.136;4.500;2023-02-28T09:43:36;103348.72;;;2.97;88.72
72857;BME280;62742;52.136;4.500;2023-02-28T09:49:10;103346.72;;;3.08;86.88
72857;BME280;62742;52.136;4.500;2023-02-28T09:51:57;103345.19;;;3.12;87.13
72857;BME280;62742;52.136;4.500;2023-02-28T09:54:45;103341.63;;;3.26;87.15
72857;BME280;62742;52.136;4.500;2023-02-28T10:00:18;103350.53;;;3.46;85.32
72857;BME280;62742;52.136;4.500;2023-02-28T10:06:01;103343.25;;;3.55;84.76
72857;BME280;62742;52.136;4.500;2023-02-28T10:08:45;103344.69;;;3.67;84.08
72857;BME280;62742;52.136;4.500;2023-02-28T10:11:23;103344.44;;;3.79;80.74
72857;BME280;62742;52.136;4.500;2023-02-28T10:16:35;103350.38;;;4.09;81.42
72857;BME280;62742;52.136;4.500;2023-02-28T10:19:20;103344.50;;;4.13;79.82
72857;BME280;62742;52.136;4.500;2023-02-28T10:22:14;103351.31;;;4.27;79.21
72857;BME280;62742;52.136;4.500;2023-02-28T10:24:47;103340.44;;;4.18;77.48
72857;BME280;62742;52.136;4.500;2023-02-28T10:27:20;103349.06;;;4.17;81.17
72857;BME280;62742;52.136;4.500;2023-02-28T10:29:50;103355.22;;;4.36;80.22
72857;BME280;62742;52.136;4.500;2023-02-28T10:32:23;103345.53;;;4.33;78.97
72857;BME280;62742;52.136;4.500;2023-02-28T10:35:20;103346.81;;;4.07;79.56
72857;BME280;62742;52.136;4.500;2023-02-28T10:37:53;103347.34;;;4.18;75.98
72857;BME280;62742;52.136;4.500;2023-02-28T10:43:01;103355.56;;;4.25;76.26
72857;BME280;62742;52.136;4.500;2023-02-28T10:46:04;103361.66;;;4.09;75.26
72857;BME280;62742;52.136;4.500;2023-02-28T10:48:40;103353.84;;;4.26;74.46
72857;BME280;62742;52.136;4.500;2023-02-28T10:51:12;103354.81;;;4.11;76.74
72857;BME280;62742;52.136;4.500;2023-02-28T10:53:55;103349.72;;;4.13;76.24
72857;BME280;62742;52.136;4.500;2023-02-28T10:56:23;103351.97;;;4.23;76.51
72857;BME280;62742;52.136;4.500;2023-02-28T11:01:24;103345.00;;;4.22;75.07
72857;BME280;62742;52.136;4.500;2023-02-28T11:03:52;103343.69;;;4.30;76.62
72857;BME280;62742;52.136;4.500;2023-02-28T11:06:25;103336.22;;;4.55;74.36
72857;BME280;62742;52.136;4.500;2023-02-28T11:08:58;103334.28;;;4.68;75.20
72857;BME280;62742;52.136;4.500;2023-02-28T11:11:29;103335.09;;;5.03;73.00
72857;BME280;62742;52.136;4.500;2023-02-28T11:14:04;103326.47;;;5.04;70.37
72857;BME280;62742;52.136;4.500;2023-02-28T11:16:36;103326.19;;;5.36;72.11
72857;BME280;62742;52.136;4.500;2023-02-28T11:19:06;103324.34;;;5.53;67.66
72857;BME280;62742;52.136;4.500;2023-02-28T11:21:56;103315.41;;;6.06;69.91
72857;BME280;62742;52.136;4.500;2023-02-28T11:24:28;103313.25;;;5.96;61.60
72857;BME280;62742;52.136;4.500;2023-02-28T11:27:00;103289.97;;;6.22;59.60
72857;BME280;62742;52.136;4.500;2023-02-28T11:29:32;103299.22;;;6.34;63.72
72857;BME280;62742;52.136;4.500;2023-02-28T11:32:21;103303.66;;;6.79;62.09
72857;BME280;62742;52.136;4.500;2023-02-28T11:37:35;103306.94;;;6.96;60.96
72857;BME280;62742;52.136;4.500;2023-02-28T11:40:17;103315.91;;;6.80;60.64
72857;BME280;62742;52.136;4.500;2023-02-28T11:48:32;103297.00;;;6.87;55.79
72857;BME280;62742;52.136;4.500;2023-02-28T11:51:33;103290.97;;;7.11;55.92
72857;BME280;62742;52.136;4.500;2023-02-28T11:57:39;103284.97;;;7.60;54.78
72857;BME280;62742;52.136;4.500;2023-02-28T12:03:31;103285.31;;;7.23;53.44
72857;BME280;62742;52.136;4.500;2023-02-28T12:15:28;103274.03;;;7.01;51.45
72857;BME280;62742;52.136;4.500;2023-02-28T12:20:57;103278.50;;;7.04;52.41
72857;BME280;62742;52.136;4.500;2023-02-28T12:24:18;103269.19;;;7.12;50.65
72857;BME280;62742;52.136;4.500;2023-02-28T12:27:15;103263.06;;;7.34;52.62
72857;BME280;62742;52.136;4.500;2023-02-28T12:29:49;103257.31;;;7.44;49.31
72857;BME280;62742;52.136;4.500;2023-02-28T12:32:36;103255.13;;;7.55;51.67
72857;BME280;62742;52.136;4.500;2023-02-28T12:38:08;103250.31;;;8.19;49.15
72857;BME280;62742;52.136;4.500;2023-02-28T12:40:49;103241.94;;;8.29;45.95
72857;BME280;62742;52.136;4.500;2023-02-28T12:43:27;103238.53;;;8.59;48.84
72857;BME280;62742;52.136;4.500;2023-02-28T12:46:02;103246.34;;;8.30;46.71
72857;BME280;62742;52.136;4.500;2023-02-28T12:48:43;103248.34;;;8.12;44.92
72857;BME280;62742;52.136;4.500;2023-02-28T12:51:15;103239.41;;;8.58;47.12
72857;BME280;62742;52.136;4.500;2023-02-28T13:08:11;103233.09;;;9.10;45.69
72857;BME280;62742;52.136;4.500;2023-02-28T13:10:51;103221.28;;;9.25;44.05
72857;BME280;62742;52.136;4.500;2023-02-28T13:13:25;103212.50;;;9.23;43.42
72857;BME280;62742;52.136;4.500;2023-02-28T13:16:05;103215.22;;;8.67;41.05
72857;BME280;62742;52.136;4.500;2023-02-28T13:18:43;103219.03;;;8.49;44.13
72857;BME280;62742;52.136;4.500;2023-02-28T13:21:29;103218.19;;;8.50;43.89
72857;BME280;62742;52.136;4.500;2023-02-28T13:24:05;103214.53;;;9.03;42.92
72857;BME280;62742;52.136;4.500;2023-02-28T13:39:48;103192.28;;;8.32;45.23
72857;BME280;62742;52.136;4.500;2023-02-28T13:47:39;103193.19;;;8.07;45.48
72857;BME280;62742;52.136;4.500;2023-02-28T13:55:48;103193.03;;;8.02;45.09
72857;BME280;62742;52.136;4.500;2023-02-28T14:07:04;103179.53;;;7.90;45.49
72857;BME280;62742;52.136;4.500;2023-02-28T14:09:33;103173.72;;;8.26;45.29
72857;BME280;62742;52.136;4.500;2023-02-28T14:15:41;103175.16;;;8.16;46.65
72857;BME280;62742;52.136;4.500;2023-02-28T14:18:19;103164.13;;;8.25;44.07
72857;BME280;62742;52.136;4.500;2023-02-28T14:20:54;103169.78;;;8.66;44.27
72857;BME280;62742;52.136;4.500;2023-02-28T14:30:03;103169.81;;;7.86;44.58
72857;BME280;62742;52.136;4.500;2023-02-28T14:38:20;103157.56;;;7.85;45.93
72857;BME280;62742;52.136;4.500;2023-02-28T14:40:53;103160.25;;;8.14;44.23
72857;BME280;62742;52.136;4.500;2023-02-28T14:43:27;103157.69;;;7.62;45.83
72857;BME280;62742;52.136;4.500;2023-02-28T14:46:05;103164.00;;;7.95;44.89
72857;BME280;62742;52.136;4.500;2023-02-28T14:48:33;103160.81;;;7.78;43.58
72857;BME280;62742;52.136;4.500;2023-02-28T14:51:01;103164.22;;;7.49;44.14
72857;BME280;62742;52.136;4.500;2023-02-28T14:53:30;103163.84;;;7.64;44.75
72857;BME280;62742;52.136;4.500;2023-02-28T14:56:02;103158.91;;;7.74;44.09
72857;BME280;62742;52.136;4.500;2023-02-28T14:58:31;103158.91;;;7.72;43.19
72857;BME280;62742;52.136;4.500;2023-02-28T15:01:02;103159.13;;;7.80;43.40
72857;BME280;62742;52.136;4.500;2023-02-28T15:03:34;103154.22;;;7.89;43.33
72857;BME280;62742;52.136;4.500;2023-02-28T15:06:06;103166.38;;;7.61;44.49
72857;BME280;62742;52.136;4.500;2023-02-28T15:08:39;103157.16;;;7.73;44.33
72857;BME280;62742;52.136;4.500;2023-02-28T15:11:07;103154.22;;;7.89;43.81
72857;BME280;62742;52.136;4.500;2023-02-28T15:13:40;103159.88;;;7.50;44.44
72857;BME280;62742;52.136;4.500;2023-02-28T15:18:49;103161.59;;;7.49;46.83
72857;BME280;62742;52.136;4.500;2023-02-28T15:21:21;103164.47;;;7.83;44.48
72857;BME280;62742;52.136;4.500;2023-02-28T15:24:04;103159.78;;;7.73;44.03
72857;BME280;62742;52.136;4.500;2023-02-28T15:26:41;103167.28;;;7.62;42.91
72857;BME280;62742;52.136;4.500;2023-02-28T15:29:21;103161.00;;;7.58;43.44
72857;BME280;62742;52.136;4.500;2023-02-28T15:32:01;103158.97;;;7.49;43.68
72857;BME280;62742;52.136;4.500;2023-02-28T15:34:39;103170.16;;;7.20;42.85